createdAt,value
2019-04-28T00:00:08.369Z,82.86
2019-04-28T00:05:08.057Z,82.10
2019-04-28T00:10:07.368Z,82.33
2019-04-28T00:15:06.314Z,81.85
2019-04-28T00:20:06.060Z,80.97
2019-04-28T00:25:06.384Z,81.43
2019-04-28T00:35:05.821Z,81.23
2019-04-28T00:40:05.084Z,80.72
2019-04-28T00:45:05.112Z,80.14
2019-04-28T00:50:04.133Z,80.43
2019-04-28T00:55:04.147Z,79.81
2019-04-28T01:00:04.273Z,78.70
2019-04-28T01:05:04.131Z,79.45
2019-04-28T01:10:04.170Z,80.12
2019-04-28T01:15:04.925Z,80.04
2019-04-28T01:20:04.092Z,80.49
2019-04-28T01:25:03.401Z,80.62
2019-04-28T01:30:07.983Z,81.22
2019-04-28T01:35:02.291Z,81.49
2019-04-28T01:40:02.353Z,80.20
2019-04-28T01:45:02.195Z,80.78
2019-04-28T01:50:03.081Z,80.19
2019-04-28T01:55:04.159Z,80.34
2019-04-28T02:00:04.125Z,81.25
2019-04-28T02:05:04.250Z,81.08
2019-04-28T02:10:04.483Z,79.51
2019-04-28T02:15:03.255Z,80.53
2019-04-28T02:20:03.410Z,81.06
2019-04-28T02:25:03.223Z,80.16
2019-04-28T02:30:03.094Z,80.40
2019-04-28T02:35:03.244Z,80.16
2019-04-28T02:40:03.873Z,80.91
2019-04-28T02:50:02.184Z,81.46
2019-04-28T02:55:03.004Z,80.24
2019-04-28T03:00:02.172Z,80.50
2019-04-28T03:05:01.425Z,80.66
2019-04-28T03:10:03.748Z,80.87
2019-04-28T03:15:03.157Z,80.40
2019-04-28T03:20:02.515Z,80.55
2019-04-28T03:25:02.164Z,80.76
2019-04-28T03:30:02.125Z,80.51
2019-04-28T03:35:03.679Z,81.07
2019-04-28T03:40:01.132Z,80.93
2019-04-28T03:45:01.200Z,80.91
2019-04-28T03:50:01.375Z,80.80
2019-04-28T03:55:01.258Z,80.51
2019-04-28T04:00:01.569Z,81.31
2019-04-28T04:05:03.807Z,81.20
2019-04-28T04:10:00.900Z,81.06
2019-04-28T04:15:00.806Z,80.68
2019-04-28T04:20:01.789Z,81.35
2019-04-28T04:25:01.247Z,80.97
2019-04-28T04:30:01.471Z,81.53
2019-04-28T04:35:00.867Z,80.87
2019-04-28T04:40:01.159Z,81.77
2019-04-28T04:45:00.541Z,80.35
2019-04-28T04:50:00.221Z,80.76
2019-04-28T04:54:58.229Z,81.19
2019-04-28T04:59:59.973Z,82.10
2019-04-28T05:09:59.513Z,80.78
2019-04-28T05:14:58.253Z,81.46
2019-04-28T05:19:57.237Z,80.63
2019-04-28T05:24:57.130Z,81.13
2019-04-28T05:29:56.846Z,82.15
2019-04-28T05:34:55.194Z,80.94
2019-04-28T05:39:54.608Z,81.23
2019-04-28T05:44:54.193Z,82.60
2019-04-28T05:49:53.558Z,81.93
2019-04-28T05:54:52.417Z,81.55
2019-04-28T05:59:53.106Z,80.94
2019-04-28T06:04:52.507Z,81.06
2019-04-28T06:09:52.404Z,81.10
2019-04-28T06:14:51.133Z,81.46
2019-04-28T06:19:51.163Z,81.62
2019-04-28T06:24:52.196Z,80.32
2019-04-28T06:29:51.560Z,81.04
2019-04-28T06:34:51.157Z,80.60
2019-04-28T06:39:51.226Z,80.06
2019-04-28T06:44:50.166Z,79.33
2019-04-28T06:49:50.138Z,79.46
2019-04-28T06:59:50.205Z,78.32
2019-04-28T07:05:00.928Z,77.26
2019-04-28T07:09:48.506Z,76.48
2019-04-28T07:14:47.529Z,77.63
2019-04-28T07:19:46.539Z,76.68
2019-04-28T07:24:46.327Z,75.46
2019-04-28T07:29:45.243Z,75.74
2019-04-28T07:34:44.232Z,76.12
2019-04-28T07:39:43.292Z,75.79
2019-04-28T07:44:42.716Z,75.65
2019-04-28T07:49:43.149Z,75.90
2019-04-28T07:54:42.113Z,74.55
2019-04-28T07:59:41.388Z,73.44
2019-04-28T08:04:41.257Z,71.76
2019-04-28T08:09:41.084Z,74.59
2019-04-28T08:14:40.532Z,71.93
2019-04-28T08:19:39.932Z,72.61
2019-04-28T08:24:38.800Z,73.66
2019-04-28T08:29:38.528Z,71.05
2019-04-28T08:34:38.562Z,71.65
2019-04-28T08:39:38.630Z,69.91
2019-04-28T08:44:37.564Z,71.24
2019-04-28T08:49:36.583Z,69.87
2019-04-28T08:54:36.564Z,70.47
2019-04-28T08:59:36.580Z,68.48
2019-04-28T09:04:35.657Z,68.30
2019-04-28T09:09:35.618Z,66.99
2019-04-28T09:14:35.835Z,64.97
2019-04-28T09:19:35.610Z,65.49
2019-04-28T09:24:36.653Z,65.01
2019-04-28T09:29:36.625Z,61.80
2019-04-28T09:34:35.537Z,64.49
2019-04-28T09:39:34.936Z,63.26
2019-04-28T09:44:34.544Z,65.46
2019-04-28T09:49:34.551Z,64.62
2019-04-28T09:54:33.570Z,64.03
2019-04-28T09:59:33.586Z,64.72
2019-04-28T10:04:41.345Z,66.12
2019-04-28T10:09:32.944Z,65.49
2019-04-28T10:14:32.558Z,65.25
2019-04-28T10:19:32.656Z,67.65
2019-04-28T10:24:31.512Z,65.73
2019-04-28T10:29:32.997Z,63.51
2019-04-28T10:34:31.571Z,62.36
2019-04-28T10:39:30.563Z,64.46
2019-04-28T10:44:30.525Z,66.87
2019-04-28T10:49:30.525Z,66.08
2019-04-28T10:54:29.520Z,68.86
2019-04-28T10:59:29.498Z,72.50
2019-04-28T11:04:28.553Z,69.12
2019-04-28T11:09:30.756Z,71.42
2019-04-28T11:14:27.515Z,68.45
2019-04-28T11:19:27.063Z,68.43
2019-04-28T11:24:26.554Z,65.98
2019-04-28T11:29:26.528Z,68.29
2019-04-28T11:34:25.654Z,67.18
2019-04-28T11:39:26.519Z,65.41
2019-04-28T11:44:26.487Z,61.99
2019-04-28T11:49:25.568Z,63.73
2019-04-28T11:54:25.498Z,63.35
2019-04-28T12:04:24.551Z,62.33
2019-04-28T12:09:24.532Z,64.58
2019-04-28T12:14:23.907Z,61.21
2019-04-28T12:19:22.907Z,64.27
2019-04-28T12:24:21.555Z,63.64
2019-04-28T12:29:21.543Z,65.45
2019-04-28T12:34:22.595Z,66.82
2019-04-28T12:39:21.793Z,66.91
2019-04-28T12:44:22.563Z,66.97
2019-04-28T12:49:23.025Z,66.66
2019-04-28T12:54:22.553Z,63.49
2019-04-28T12:59:22.905Z,65.28
2019-04-28T13:04:22.900Z,65.22
2019-04-28T13:09:22.565Z,65.09
2019-04-28T13:14:21.612Z,65.36
2019-04-28T13:19:21.560Z,67.16
2019-04-28T13:24:21.513Z,67.17
2019-04-28T13:29:20.838Z,64.54
2019-04-28T13:34:19.693Z,63.92
2019-04-28T13:39:19.498Z,63.76
2019-04-28T13:44:18.733Z,65.55
2019-04-28T13:49:18.558Z,64.80
2019-04-28T13:54:17.553Z,63.85
2019-04-28T13:59:16.930Z,63.31
2019-04-28T14:04:17.596Z,62.76
2019-04-28T14:09:17.645Z,63.06
2019-04-28T14:14:17.606Z,64.07
2019-04-28T14:19:16.944Z,61.30
2019-04-28T14:24:17.568Z,61.65
2019-04-28T14:29:17.530Z,59.84
2019-04-28T14:34:16.673Z,60.60
2019-04-28T14:39:16.496Z,63.50
2019-04-28T14:44:17.782Z,60.35
2019-04-28T14:49:16.032Z,62.00
2019-04-28T14:54:15.522Z,61.71
2019-04-28T14:59:15.583Z,60.05
2019-04-28T15:04:15.481Z,59.45
2019-04-28T15:09:15.550Z,58.60
2019-04-28T15:14:14.847Z,59.18
2019-04-28T15:19:14.521Z,59.40
2019-04-28T15:24:14.549Z,58.50
2019-04-28T15:29:14.636Z,59.18
2019-04-28T15:34:13.519Z,60.41
2019-04-28T15:39:12.494Z,58.95
2019-04-28T15:44:11.627Z,58.16
2019-04-28T15:49:10.962Z,57.35
2019-04-28T15:54:10.510Z,59.01
2019-04-28T15:59:10.581Z,61.38
2019-04-28T16:04:09.617Z,60.43
2019-04-28T16:09:08.495Z,61.45
2019-04-28T16:14:08.487Z,58.78
2019-04-28T16:19:08.491Z,60.31
2019-04-28T16:24:08.538Z,62.05
2019-04-28T16:29:08.483Z,63.09
2019-04-28T16:34:08.548Z,63.56
2019-04-28T16:39:08.525Z,65.44
2019-04-28T16:44:07.699Z,67.97
2019-04-28T16:49:08.512Z,68.64
2019-04-28T16:54:07.586Z,69.05
2019-04-28T16:59:08.735Z,70.20
2019-04-28T17:04:08.522Z,71.67
2019-04-28T17:09:08.524Z,72.00
2019-04-28T17:14:09.615Z,72.81
2019-04-28T17:19:09.500Z,72.22
2019-04-28T17:24:09.591Z,71.07
2019-04-28T17:29:10.526Z,70.49
2019-04-28T17:34:10.525Z,69.74
2019-04-28T17:39:09.474Z,69.10
2019-04-28T17:44:08.458Z,69.81
2019-04-28T17:49:08.477Z,68.78
2019-04-28T17:54:07.822Z,69.22
2019-04-28T17:59:07.524Z,69.63
2019-04-28T18:04:06.602Z,70.35
2019-04-28T18:09:05.655Z,70.58
2019-04-28T18:14:04.931Z,71.13
2019-04-28T18:19:04.516Z,70.45
2019-04-28T18:24:03.761Z,70.85
2019-04-28T18:29:04.445Z,71.01
2019-04-28T18:34:03.858Z,71.41
2019-04-28T18:39:02.672Z,74.20
2019-04-28T18:44:02.497Z,74.06
2019-04-28T18:49:02.506Z,75.40
2019-04-28T18:54:02.445Z,73.84
2019-04-28T18:59:03.471Z,76.32
2019-04-28T19:04:03.644Z,76.88
2019-04-28T19:09:03.740Z,77.72
2019-04-28T19:14:02.805Z,76.37
2019-04-28T19:19:02.577Z,77.44
2019-04-28T19:24:02.505Z,77.00
2019-04-28T19:29:02.490Z,77.87
2019-04-28T19:34:03.617Z,79.34
2019-04-28T19:39:03.805Z,79.38
2019-04-28T19:44:03.556Z,80.28
2019-04-28T19:49:03.513Z,80.95
2019-04-28T19:54:03.031Z,80.74
2019-04-28T19:59:03.508Z,80.66
2019-04-28T20:04:02.510Z,80.70
2019-04-28T20:09:01.521Z,81.15
2019-04-28T20:14:01.609Z,81.71
2019-04-28T20:19:00.685Z,81.61
2019-04-28T20:24:01.507Z,80.12
2019-04-28T20:29:01.564Z,80.27
2019-04-28T20:34:00.522Z,80.07
2019-04-28T20:39:00.642Z,80.15
2019-04-28T20:43:59.552Z,80.22
2019-04-28T20:48:59.038Z,81.66
2019-04-28T20:53:59.509Z,79.49
2019-04-28T20:59:00.568Z,82.03
2019-04-28T21:04:01.557Z,84.38
2019-04-28T21:09:01.524Z,83.63
2019-04-28T21:14:01.617Z,84.57
2019-04-28T21:19:00.523Z,83.95
2019-04-28T21:23:59.457Z,82.43
2019-04-28T21:28:58.514Z,83.85
2019-04-28T21:33:58.474Z,83.88
2019-04-28T21:38:57.752Z,85.24
2019-04-28T21:43:57.736Z,85.54
2019-04-28T21:48:57.580Z,85.47
2019-04-28T21:53:56.718Z,85.68
2019-04-28T21:58:57.842Z,86.10
2019-04-28T22:03:57.552Z,85.03
2019-04-28T22:08:57.598Z,84.18
2019-04-28T22:13:57.520Z,84.49
2019-04-28T22:18:56.924Z,85.88
2019-04-28T22:23:57.544Z,84.35
2019-04-28T22:28:57.527Z,85.74
2019-04-28T22:33:57.530Z,87.55
2019-04-28T22:38:57.525Z,87.29
2019-04-28T22:43:57.556Z,87.71
2019-04-28T22:48:58.645Z,86.98
2019-04-28T22:53:58.564Z,86.19
2019-04-28T22:58:58.597Z,86.16
2019-04-28T23:03:57.665Z,86.62
2019-04-28T23:08:58.483Z,87.96
2019-04-28T23:13:58.585Z,85.79
2019-04-28T23:18:57.581Z,86.97
2019-04-28T23:23:56.586Z,88.20
2019-04-28T23:28:55.673Z,88.67
2019-04-28T23:33:56.538Z,86.60
2019-04-28T23:38:55.560Z,88.37
2019-04-28T23:43:55.576Z,84.88
2019-04-28T23:48:54.825Z,86.53
2019-04-28T23:53:54.545Z,86.64
2019-04-28T23:58:54.735Z,87.25
